Hemlock, Michigan
Current Conditions -  °F | °C
As of 6:53 AM on Saturday 25 Oct 2014 (Local Time) from KMBS Reporting Station
Broken Clouds Broken Clouds  
Wind Chill: 51°   Ceiling: 5500
Heat Index: 51°   Visibility: 7mi
Dew Point: 46°   Wind: 12mph
Humidity: 83%   Direction: 230°SW
Pressure: 29.8"   Gusts: NA
Location:  43.41°N, 84.23°W
Report Text: KMBS 251053Z 23010KT 7SM FEW032 BKN055 11/08 A2980 RMK AO2 SLP092 T01060078
Loading
Personal Weather Stations






























Interactive Weather Map
Tropical Storm Tracking
New forecast layout! Learn more

10-Day Weather Forecast

Advertisements
Track Severe Weather on mobile